Terminal Aerodrome Forecast
Issued by NWS

Home | Current Version | Previous Version | Text Only | Print | Product List | Glossary On
Versions: 1 2 3 4 5 6 7 8 9 10 11 12 13 14 15 16 17 18 19 20 21 22 23 24 25 26 27 28 29 30 31 32 33 34
000
FTUS43 KDTX 302320
TAFPTK
TAF
KPTK 302320Z 3100/3124 24005KT P6SM SKC
     FM310800 VRB03KT 3SM BR SKC
     FM311000 00000KT 1SM BR VV007
     FM311400 VRB03KT 3SM BR SCT015
     FM311600 25005KT P6SM FEW045=

USA.gov is the U.S. government's official web portal to all federal, state and local government web resources and services.